createdAt,value
2018-06-15T00:10:34.749Z,98133.56
2018-06-15T00:13:03.721Z,98130.66
2018-06-15T00:15:33.237Z,98132.72
2018-06-15T00:18:01.988Z,98129.90
2018-06-15T00:20:30.786Z,98126.12
2018-06-15T00:22:59.908Z,98123.56
2018-06-15T00:25:28.850Z,98126.83
2018-06-15T00:27:57.452Z,98132.63
2018-06-15T00:30:26.166Z,98125.84
2018-06-15T00:32:54.796Z,98122.38
2018-06-15T00:35:23.516Z,98116.85
2018-06-15T00:37:52.735Z,98124.50
2018-06-15T00:40:21.544Z,98119.95
2018-06-15T00:42:50.896Z,98124.24
2018-06-15T00:45:20.037Z,98122.66
2018-06-15T00:47:49.444Z,98122.03
2018-06-15T00:50:18.408Z,98116.98
2018-06-15T00:52:47.103Z,98119.09
2018-06-15T00:55:15.912Z,98114.27
2018-06-15T00:57:47.316Z,98121.59
2018-06-15T01:00:16.544Z,98113.17
2018-06-15T01:02:45.566Z,98120.73
2018-06-15T01:05:14.178Z,98117.47
2018-06-15T01:07:43.125Z,98112.53
2018-06-15T01:10:12.411Z,98112.80
2018-06-15T01:12:41.593Z,98110.47
2018-06-15T01:15:10.348Z,98104.06
2018-06-15T01:17:38.960Z,98106.20
2018-06-15T01:20:08.179Z,98098.55
2018-06-15T01:22:37.569Z,98103.48
2018-06-15T01:25:06.362Z,98103.81
2018-06-15T01:27:34.987Z,98106.41
2018-06-15T01:30:03.767Z,98104.94
2018-06-15T01:32:32.397Z,98109.77
2018-06-15T01:35:01.171Z,98103.75
2018-06-15T01:37:29.857Z,98107.27
2018-06-15T01:39:58.451Z,98100.98
2018-06-15T01:42:27.231Z,98112.69
2018-06-15T01:44:56.670Z,98118.11
2018-06-15T01:47:25.806Z,98120.56
2018-06-15T01:49:54.535Z,98117.41
2018-06-15T01:52:23.136Z,98120.00
2018-06-15T01:54:52.080Z,98118.70
2018-06-15T01:57:21.590Z,98117.11
2018-06-15T01:59:50.941Z,98109.53
2018-06-15T02:02:20.150Z,98111.69
2018-06-15T02:04:48.875Z,98118.20
2018-06-15T02:07:17.576Z,98120.91
2018-06-15T02:09:46.347Z,98120.11
2018-06-15T02:12:15.023Z,98116.67
2018-06-15T02:14:43.728Z,98116.72
2018-06-15T02:17:13.578Z,98117.53
2018-06-15T02:19:42.276Z,98121.05
2018-06-15T02:22:10.942Z,98122.04
2018-06-15T02:24:39.687Z,98122.48
2018-06-15T02:27:08.408Z,98123.25
2018-06-15T02:29:37.351Z,98121.30
2018-06-15T02:32:06.107Z,98134.59
2018-06-15T02:34:34.946Z,98140.09
2018-06-15T02:37:03.583Z,98122.22
2018-06-15T02:39:32.199Z,98121.23
2018-06-15T02:42:00.921Z,98116.04
2018-06-15T02:44:29.897Z,98118.20
2018-06-15T02:46:59.258Z,98117.71
2018-06-15T02:49:28.171Z,98121.78
2018-06-15T02:51:56.861Z,98119.82
2018-06-15T02:54:25.883Z,98124.61
2018-06-15T02:56:54.550Z,98114.63
2018-06-15T02:59:23.266Z,98113.28
2018-06-15T03:01:52.168Z,98105.28
2018-06-15T03:04:20.972Z,98108.47
2018-06-15T03:06:50.243Z,98104.77
2018-06-15T03:09:18.978Z,98102.30
2018-06-15T03:11:47.648Z,98108.76
2018-06-15T03:14:16.773Z,98111.31
2018-06-15T03:16:45.601Z,98109.33
2018-06-15T03:19:14.527Z,98111.23
2018-06-15T03:21:43.370Z,98111.34
2018-06-15T03:24:12.797Z,98109.13
2018-06-15T03:26:41.978Z,98112.69
2018-06-15T03:29:11.767Z,98111.05
2018-06-15T03:31:40.378Z,98117.56
2018-06-15T03:34:09.668Z,98118.37
2018-06-15T03:36:38.446Z,98118.05
2018-06-15T03:39:10.410Z,98116.65
2018-06-15T03:41:39.232Z,98118.27
2018-06-15T03:44:08.267Z,98113.08
2018-06-15T03:46:38.256Z,98114.44
2018-06-15T03:49:07.028Z,98118.22
2018-06-15T03:51:36.317Z,98126.75
2018-06-15T03:54:05.211Z,98120.24
2018-06-15T03:56:33.871Z,98124.78
2018-06-15T03:59:02.773Z,98121.66
2018-06-15T04:01:33.073Z,98118.34
2018-06-15T04:04:01.886Z,98125.24
2018-06-15T04:06:30.564Z,98123.89
2018-06-15T04:08:59.728Z,98126.83
2018-06-15T04:11:28.281Z,98127.32
2018-06-15T04:13:57.037Z,98119.89
2018-06-15T04:16:25.754Z,98118.66
2018-06-15T04:18:54.667Z,98124.14
2018-06-15T04:21:24.010Z,98119.95
2018-06-15T04:23:53.262Z,98121.86
2018-06-15T04:26:22.237Z,98122.30
2018-06-15T04:28:50.849Z,98125.44
2018-06-15T04:31:19.908Z,98127.46
2018-06-15T04:33:48.844Z,98118.11
2018-06-15T04:36:17.829Z,98119.26
2018-06-15T04:38:46.418Z,98113.94
2018-06-15T04:41:15.949Z,98114.25
2018-06-15T04:43:44.861Z,98121.14
2018-06-15T04:46:13.768Z,98124.83
2018-06-15T04:48:42.363Z,98116.43
2018-06-15T04:51:11.488Z,98118.21
2018-06-15T04:53:40.953Z,98110.10
2018-06-15T04:56:09.662Z,98109.33
2018-06-15T04:58:39.332Z,98109.94
2018-06-15T05:01:08.539Z,98107.44
2018-06-15T05:03:37.839Z,98115.05
2018-06-15T05:06:06.912Z,98115.31
2018-06-15T05:08:35.678Z,98118.08
2018-06-15T05:11:04.437Z,98118.57
2018-06-15T05:13:33.678Z,98122.58
2018-06-15T05:16:02.439Z,98123.20
2018-06-15T05:18:31.843Z,98120.33
2018-06-15T05:21:01.190Z,98128.25
2018-06-15T05:23:30.084Z,98129.83
2018-06-15T05:25:59.676Z,98131.27
2018-06-15T05:28:28.547Z,98127.55
2018-06-15T05:30:57.395Z,98128.68
2018-06-15T05:33:26.564Z,98130.17
2018-06-15T05:35:55.837Z,98134.61
2018-06-15T05:38:24.489Z,98128.47
2018-06-15T05:40:53.407Z,98131.77
2018-06-15T05:43:22.157Z,98135.92
2018-06-15T05:45:50.894Z,98130.62
2018-06-15T05:48:19.740Z,98130.57
2018-06-15T05:50:48.657Z,98130.41
2018-06-15T05:53:17.294Z,98129.98
2018-06-15T05:55:46.982Z,98138.91
2018-06-15T05:58:15.692Z,98139.93
2018-06-15T06:00:44.896Z,98145.00
2018-06-15T06:03:20.074Z,98146.05
2018-06-15T06:05:49.327Z,98143.27
2018-06-15T06:08:19.750Z,98144.99
2018-06-15T06:10:49.714Z,98146.01
2018-06-15T06:13:18.687Z,98152.61
2018-06-15T06:15:47.970Z,98139.55
2018-06-15T06:18:17.359Z,98145.42
2018-06-15T06:20:46.127Z,98146.11
2018-06-15T06:23:14.797Z,98148.58
2018-06-15T06:25:43.592Z,98149.53
2018-06-15T06:28:12.429Z,98151.79
2018-06-15T06:30:41.454Z,98149.56
2018-06-15T06:33:10.254Z,98155.75
2018-06-15T06:35:39.804Z,98156.97
2018-06-15T06:38:10.003Z,98156.09
2018-06-15T06:40:38.593Z,98163.63
2018-06-15T06:43:07.498Z,98162.33
2018-06-15T06:45:36.115Z,98163.83
2018-06-15T06:48:04.883Z,98166.23
2018-06-15T06:50:33.482Z,98165.98
2018-06-15T06:53:02.181Z,98167.45
2018-06-15T06:55:30.845Z,98164.41
2018-06-15T06:57:59.549Z,98164.25
2018-06-15T07:00:29.074Z,98165.85
2018-06-15T07:02:58.084Z,98165.36
2018-06-15T07:05:26.904Z,98165.51
2018-06-15T07:07:55.755Z,98164.06
2018-06-15T07:10:24.999Z,98164.13
2018-06-15T07:12:54.511Z,98167.62
2018-06-15T07:15:23.475Z,98170.53
2018-06-15T07:17:52.086Z,98172.16
2018-06-15T07:20:20.890Z,98169.16
2018-06-15T07:22:50.084Z,98175.77
2018-06-15T07:25:19.784Z,98169.09
2018-06-15T07:27:48.602Z,98172.31
2018-06-15T07:30:17.952Z,98173.12
2018-06-15T07:32:46.930Z,98169.59
2018-06-15T07:35:15.511Z,98172.35
2018-06-15T07:37:44.495Z,98172.71
2018-06-15T07:40:13.395Z,98170.58
2018-06-15T07:42:42.645Z,98165.06
2018-06-15T07:45:11.360Z,98164.19
2018-06-15T07:47:40.027Z,98165.48
2018-06-15T07:50:08.826Z,98157.28
2018-06-15T07:52:37.885Z,98179.50
2018-06-15T07:55:07.380Z,98175.05
2018-06-15T07:57:36.165Z,98169.45
2018-06-15T08:00:05.132Z,98161.92
2018-06-15T08:02:33.790Z,98171.89
2018-06-15T08:05:02.565Z,98170.30
2018-06-15T08:07:31.229Z,98164.37
2018-06-15T08:10:00.057Z,98170.39
2018-06-15T08:12:28.743Z,98170.49
2018-06-15T08:14:57.476Z,98169.25
2018-06-15T08:17:26.173Z,98169.55
2018-06-15T08:19:55.009Z,98165.41
2018-06-15T08:22:23.745Z,98172.26
2018-06-15T08:24:52.583Z,98173.80
2018-06-15T08:27:22.084Z,98175.03
2018-06-15T08:29:50.849Z,98175.41
2018-06-15T08:32:19.741Z,98175.12
2018-06-15T08:34:49.043Z,98172.62
2018-06-15T08:37:18.117Z,98170.25
2018-06-15T08:39:46.635Z,98167.78
2018-06-15T08:42:15.289Z,98162.92
2018-06-15T08:44:44.130Z,98168.06
2018-06-15T08:47:12.966Z,98168.78
2018-06-15T08:49:41.814Z,98166.11
2018-06-15T08:52:11.375Z,98162.47
2018-06-15T08:54:40.714Z,98167.06
2018-06-15T08:57:09.421Z,98165.73
2018-06-15T08:59:38.126Z,98160.30
2018-06-15T09:02:07.165Z,98162.97
2018-06-15T09:04:36.111Z,98155.43
2018-06-15T09:07:05.082Z,98148.89
2018-06-15T09:09:34.066Z,98159.66
2018-06-15T09:12:02.616Z,98156.73
2018-06-15T09:14:31.453Z,98158.13
2018-06-15T09:17:00.809Z,98154.89
2018-06-15T09:19:29.993Z,98152.05
2018-06-15T09:21:58.843Z,98161.28
2018-06-15T09:24:27.468Z,98159.02
2018-06-15T09:26:56.253Z,98157.48
2018-06-15T09:29:24.950Z,98156.81
2018-06-15T09:31:53.507Z,98152.56
2018-06-15T09:34:22.150Z,98162.47
2018-06-15T09:36:51.548Z,98160.26
2018-06-15T09:39:20.355Z,98151.54
2018-06-15T09:41:50.081Z,98155.93
2018-06-15T09:44:19.266Z,98156.69
2018-06-15T09:46:48.116Z,98151.00
2018-06-15T09:49:16.789Z,98149.98
2018-06-15T09:51:45.625Z,98147.38
2018-06-15T09:54:14.239Z,98156.33
2018-06-15T09:56:43.565Z,98154.55
2018-06-15T09:59:12.363Z,98148.17
2018-06-15T10:01:41.053Z,98148.41
2018-06-15T10:04:09.689Z,98159.20
2018-06-15T10:06:38.243Z,98148.22
2018-06-15T10:09:07.921Z,98145.99
2018-06-15T10:11:36.615Z,98152.21
2018-06-15T10:14:05.320Z,98154.60
2018-06-15T10:16:34.210Z,98155.44
2018-06-15T10:19:03.636Z,98157.38
2018-06-15T10:21:32.374Z,98151.77
2018-06-15T10:24:01.120Z,98154.64
2018-06-15T10:26:30.060Z,98149.46
2018-06-15T10:28:58.936Z,98155.63
2018-06-15T10:31:27.670Z,98150.80
2018-06-15T10:33:56.838Z,98145.47
2018-06-15T10:36:26.095Z,98147.10
2018-06-15T10:38:54.867Z,98144.01
2018-06-15T10:41:23.512Z,98140.97
2018-06-15T10:43:52.791Z,98140.96
2018-06-15T10:46:21.862Z,98141.46
2018-06-15T10:48:50.762Z,98141.95
2018-06-15T10:51:19.547Z,98144.02
2018-06-15T10:53:48.360Z,98138.28
2018-06-15T10:56:17.132Z,98139.03
2018-06-15T10:58:46.108Z,98137.78
2018-06-15T11:01:14.871Z,98135.89
2018-06-15T11:03:43.500Z,98134.61
2018-06-15T11:06:13.094Z,98135.50
2018-06-15T11:08:41.877Z,98136.22
2018-06-15T11:11:11.200Z,98132.38
2018-06-15T11:13:40.489Z,98132.21
2018-06-15T11:16:09.691Z,98127.98
2018-06-15T11:18:38.791Z,98121.01
2018-06-15T11:21:07.445Z,98120.48
2018-06-15T11:23:36.340Z,98113.13
2018-06-15T11:26:05.235Z,98112.47
2018-06-15T11:28:34.111Z,98108.31
2018-06-15T11:31:02.708Z,98104.71
2018-06-15T11:33:32.194Z,98101.89
2018-06-15T11:36:01.463Z,98105.17
2018-06-15T11:38:30.252Z,98103.39
2018-06-15T11:40:59.170Z,98091.65
2018-06-15T11:43:27.842Z,98103.30
2018-06-15T11:45:56.552Z,98093.41
2018-06-15T11:48:25.297Z,98097.30
2018-06-15T11:50:55.511Z,98098.97
2018-06-15T11:53:24.340Z,98094.39
2018-06-15T11:55:52.901Z,98099.47
2018-06-15T11:58:21.710Z,98088.59
2018-06-15T12:00:50.922Z,98089.57
2018-06-15T12:03:20.382Z,98089.36
2018-06-15T12:05:50.218Z,98087.62
2018-06-15T12:08:19.646Z,98087.39
2018-06-15T12:10:48.897Z,98097.03
2018-06-15T12:13:17.657Z,98090.55
2018-06-15T12:15:46.675Z,98090.81
2018-06-15T12:18:15.386Z,98091.43
2018-06-15T12:20:44.856Z,98089.84
2018-06-15T12:23:13.681Z,98091.34
2018-06-15T12:25:42.581Z,98087.94
2018-06-15T12:28:11.325Z,98086.31
2018-06-15T12:30:40.117Z,98089.36
2018-06-15T12:33:08.933Z,98080.77
2018-06-15T12:35:37.811Z,98081.77
2018-06-15T12:38:06.831Z,98087.11
2018-06-15T12:40:35.468Z,98081.95
2018-06-15T12:43:04.585Z,98081.19
2018-06-15T12:45:33.476Z,98088.56
2018-06-15T12:48:02.140Z,98081.87
2018-06-15T12:50:30.852Z,98084.52
2018-06-15T12:52:59.566Z,98070.52
2018-06-15T12:55:28.271Z,98072.11
2018-06-15T12:57:57.115Z,98077.86
2018-06-15T13:00:25.975Z,98073.27
2018-06-15T13:02:54.732Z,98068.19
2018-06-15T13:05:24.357Z,98074.66
2018-06-15T13:07:53.109Z,98073.04
2018-06-15T13:10:21.883Z,98068.36
2018-06-15T13:12:50.558Z,98072.34
2018-06-15T13:15:19.657Z,98078.12
2018-06-15T13:17:48.779Z,98068.07
2018-06-15T13:20:17.792Z,98072.47
2018-06-15T13:22:46.720Z,98066.91
2018-06-15T13:25:15.551Z,98065.92
2018-06-15T13:27:44.396Z,98069.07
2018-06-15T13:30:13.155Z,98070.28
2018-06-15T13:32:41.858Z,98071.06
2018-06-15T13:35:11.457Z,98072.44
2018-06-15T13:37:40.610Z,98073.23
2018-06-15T13:40:09.479Z,98071.64
2018-06-15T13:42:38.195Z,98063.55
2018-06-15T13:45:07.332Z,98069.49
2018-06-15T13:47:35.998Z,98073.64
2018-06-15T13:50:05.160Z,98069.88
2018-06-15T13:52:34.116Z,98063.89
2018-06-15T13:55:02.982Z,98059.98
2018-06-15T13:57:32.507Z,98064.11
2018-06-15T14:00:01.947Z,98059.33
2018-06-15T14:02:32.116Z,98062.84
2018-06-15T14:05:01.106Z,98057.70
2018-06-15T14:07:30.573Z,98055.38
2018-06-15T14:10:00.722Z,98062.52
2018-06-15T14:12:29.936Z,98057.59
2018-06-15T14:14:58.969Z,98052.55
2018-06-15T14:17:27.851Z,98049.87
2018-06-15T14:19:56.471Z,98052.11
2018-06-15T14:22:25.270Z,98049.05
2018-06-15T14:24:54.032Z,98047.15
2018-06-15T14:27:22.809Z,98044.86
2018-06-15T14:29:51.662Z,98043.05
2018-06-15T14:32:20.599Z,98051.67
2018-06-15T14:34:49.489Z,98046.66
2018-06-15T14:37:18.294Z,98049.50
2018-06-15T14:39:47.550Z,98050.11
2018-06-15T14:42:16.302Z,98048.70
2018-06-15T14:44:44.898Z,98043.33
2018-06-15T14:47:14.254Z,98044.50
2018-06-15T14:49:43.292Z,98044.86
2018-06-15T14:52:12.570Z,98036.98
2018-06-15T14:54:41.646Z,98038.42
2018-06-15T14:57:10.519Z,98034.30
2018-06-15T14:59:40.196Z,98037.05
2018-06-15T15:02:09.334Z,98033.85
2018-06-15T15:04:39.728Z,98029.13
2018-06-15T15:07:08.826Z,98038.05
2018-06-15T15:09:40.941Z,98030.91
2018-06-15T15:12:09.805Z,98036.26
2018-06-15T15:21:20.802Z,98027.16
2018-06-15T15:23:50.121Z,98026.75
2018-06-15T15:26:19.332Z,98021.99
2018-06-15T15:28:48.562Z,98025.75
2018-06-15T15:31:17.697Z,98017.30
2018-06-15T15:33:46.772Z,98012.54
2018-06-15T15:36:15.546Z,98016.63
2018-06-15T15:38:45.578Z,98016.44
2018-06-15T15:41:14.363Z,98011.26
2018-06-15T15:43:43.877Z,98012.37
2018-06-15T15:46:12.827Z,98011.40
2018-06-15T15:48:41.617Z,98012.69
2018-06-15T15:51:10.711Z,98014.93
2018-06-15T15:53:39.803Z,98006.14
2018-06-15T15:56:08.945Z,98005.92
2018-06-15T15:58:38.278Z,98001.19
2018-06-15T16:01:08.042Z,98002.13
2018-06-15T16:03:36.873Z,98004.17
2018-06-15T16:06:06.005Z,98006.45
2018-06-15T16:08:35.064Z,98002.80
2018-06-15T16:11:03.984Z,98010.96
2018-06-15T16:13:33.745Z,98001.06
2018-06-15T16:16:03.006Z,98003.02
2018-06-15T16:18:32.029Z,98000.38
2018-06-15T16:21:00.990Z,97998.86
2018-06-15T16:23:29.768Z,97999.42
2018-06-15T16:25:58.733Z,97998.19
2018-06-15T16:28:27.947Z,97997.80
2018-06-15T16:30:56.657Z,97997.48
2018-06-15T16:33:25.502Z,98000.94
2018-06-15T16:35:54.545Z,97998.80
2018-06-15T16:38:23.773Z,98007.91
2018-06-15T16:40:52.769Z,97999.77
2018-06-15T16:43:21.615Z,97999.42
2018-06-15T16:45:50.610Z,97998.13
2018-06-15T16:48:19.412Z,98003.30
2018-06-15T16:50:49.168Z,98005.42
2018-06-15T16:53:17.900Z,98006.79
2018-06-15T16:55:46.613Z,98003.37
2018-06-15T16:58:15.317Z,98007.27
2018-06-15T17:00:44.818Z,98007.23
2018-06-15T17:03:15.311Z,98010.31
2018-06-15T17:05:43.987Z,98006.66
2018-06-15T17:08:12.731Z,98006.38
2018-06-15T17:10:42.354Z,98009.76
2018-06-15T17:13:11.185Z,98008.97
2018-06-15T17:15:41.187Z,98011.09
2018-06-15T17:18:10.073Z,98009.64
2018-06-15T17:20:38.671Z,98012.31
2018-06-15T17:23:07.964Z,98012.60
2018-06-15T17:25:37.105Z,98010.72
2018-06-15T17:28:06.008Z,98010.67
2018-06-15T17:30:34.843Z,98011.63
2018-06-15T17:33:03.621Z,98005.43
2018-06-15T17:35:33.033Z,98011.87
2018-06-15T17:38:02.381Z,98009.37
2018-06-15T17:40:31.503Z,98012.21
2018-06-15T17:43:00.954Z,98019.83
2018-06-15T17:45:30.372Z,98017.02
2018-06-15T17:47:59.496Z,98016.61
2018-06-15T17:50:28.503Z,98022.04
2018-06-15T17:52:57.574Z,98020.27
2018-06-15T17:55:26.909Z,98018.09
2018-06-15T17:57:55.932Z,98020.99
2018-06-15T18:00:25.303Z,98019.61
2018-06-15T18:02:54.390Z,98020.83
2018-06-15T18:05:23.714Z,98020.66
2018-06-15T18:07:53.072Z,98023.01
2018-06-15T18:10:22.229Z,98028.56
2018-06-15T18:12:51.349Z,98023.67
2018-06-15T18:15:20.507Z,98025.48
2018-06-15T18:17:49.879Z,98026.75
2018-06-15T18:20:19.039Z,98024.45
2018-06-15T18:22:48.103Z,98020.86
2018-06-15T18:25:17.557Z,98022.77
2018-06-15T18:27:47.005Z,98026.47
2018-06-15T18:30:16.903Z,98027.34
2018-06-15T18:32:45.880Z,98028.13
2018-06-15T18:35:15.038Z,98029.84
2018-06-15T18:37:46.650Z,98030.01
2018-06-15T18:40:15.668Z,98033.31
2018-06-15T18:42:45.003Z,98033.55
2018-06-15T18:45:14.328Z,98026.73
2018-06-15T18:47:43.137Z,98034.46
2018-06-15T18:50:12.341Z,98036.92
2018-06-15T18:52:41.422Z,98035.97
2018-06-15T18:55:10.375Z,98042.77
2018-06-15T18:57:39.244Z,98038.52
2018-06-15T19:00:09.070Z,98038.16
2018-06-15T19:02:38.223Z,98036.56
2018-06-15T19:05:08.105Z,98038.17
2018-06-15T19:07:37.179Z,98032.08
2018-06-15T19:10:06.184Z,98032.68
2018-06-15T19:12:35.702Z,98033.38
2018-06-15T19:15:05.298Z,98042.86
2018-06-15T19:17:34.225Z,98044.55
2018-06-15T19:20:04.232Z,98037.05
2018-06-15T19:22:33.635Z,98049.88
2018-06-15T19:25:02.869Z,98053.97
2018-06-15T19:27:32.056Z,98047.98
2018-06-15T19:30:00.803Z,98048.63
2018-06-15T19:32:29.643Z,98055.70
2018-06-15T19:34:58.618Z,98050.27
2018-06-15T19:37:28.585Z,98049.17
2018-06-15T19:39:57.788Z,98051.98
2018-06-15T19:42:27.263Z,98054.30
2018-06-15T19:44:56.450Z,98049.77
2018-06-15T19:47:25.787Z,98049.52
2018-06-15T19:49:54.845Z,98054.64
2018-06-15T19:52:24.139Z,98055.02
2018-06-15T19:54:53.239Z,98057.74
2018-06-15T19:57:22.689Z,98055.02
2018-06-15T19:59:51.694Z,98053.30
2018-06-15T20:02:21.098Z,98060.25
2018-06-15T20:04:50.385Z,98058.32
2018-06-15T20:07:19.550Z,98055.80
2018-06-15T20:09:48.925Z,98056.82
2018-06-15T20:12:17.968Z,98057.84
2018-06-15T20:14:47.152Z,98052.85
2018-06-15T20:17:16.349Z,98058.39
2018-06-15T20:19:45.582Z,98057.56
2018-06-15T20:22:15.027Z,98059.64
2018-06-15T20:24:44.193Z,98061.00
2018-06-15T20:27:13.417Z,98059.64
2018-06-15T20:29:42.704Z,98063.83
2018-06-15T20:32:11.933Z,98065.69
2018-06-15T20:34:41.143Z,98065.21
2018-06-15T20:37:11.117Z,98067.72
2018-06-15T20:39:40.529Z,98071.63
2018-06-15T20:42:09.484Z,98075.63
2018-06-15T20:44:38.355Z,98076.90
2018-06-15T20:47:07.948Z,98081.14
2018-06-15T20:49:36.717Z,98072.78
2018-06-15T20:52:06.574Z,98077.23
2018-06-15T20:54:35.685Z,98087.25
2018-06-15T20:57:04.295Z,98089.07
2018-06-15T20:59:33.132Z,98078.05
2018-06-15T21:02:01.985Z,98083.96
2018-06-15T21:04:31.664Z,98084.98
2018-06-15T21:07:00.663Z,98079.92
2018-06-15T21:09:29.959Z,98083.98
2018-06-15T21:11:59.173Z,98082.45
2018-06-15T21:14:28.521Z,98085.17
2018-06-15T21:16:57.568Z,98086.50
2018-06-15T21:19:27.077Z,98093.27
2018-06-15T21:21:56.160Z,98093.91
2018-06-15T21:24:24.935Z,98092.33
2018-06-15T21:26:53.847Z,98099.19
2018-06-15T21:29:22.675Z,98099.45
2018-06-15T21:31:52.289Z,98095.48
2018-06-15T21:34:21.171Z,98097.52
2018-06-15T21:36:50.115Z,98099.56
2018-06-15T21:39:18.895Z,98099.95
2018-06-15T21:41:47.843Z,98098.20
2018-06-15T21:44:16.853Z,98100.12
2018-06-15T21:46:45.700Z,98107.12
2018-06-15T21:49:14.628Z,98103.96
2018-06-15T21:51:43.989Z,98104.59
2018-06-15T21:54:12.723Z,98106.91
2018-06-15T21:56:41.383Z,98096.06
2018-06-15T21:59:10.619Z,98096.64
2018-06-15T22:01:39.393Z,98095.28
2018-06-15T22:04:08.797Z,98097.45
2018-06-15T22:06:37.551Z,98092.48
2018-06-15T22:09:07.939Z,98092.89
2018-06-15T22:11:36.542Z,98093.77
2018-06-15T22:14:06.653Z,98094.82
2018-06-15T22:16:41.264Z,98096.48
2018-06-15T22:19:10.114Z,98102.17
2018-06-15T22:21:38.717Z,98102.11
2018-06-15T22:24:07.600Z,98097.62
2018-06-15T22:26:36.380Z,98100.16
2018-06-15T22:29:05.985Z,98102.66
2018-06-15T22:31:34.817Z,98104.34
2018-06-15T22:34:03.664Z,98105.61
2018-06-15T22:36:32.491Z,98107.14
2018-06-15T22:39:01.303Z,98096.75
2018-06-15T22:41:30.301Z,98105.94
2018-06-15T22:43:59.017Z,98097.05
2018-06-15T22:46:28.508Z,98101.38
2018-06-15T22:48:57.229Z,98097.70
2018-06-15T22:51:26.055Z,98098.88
2018-06-15T22:53:54.974Z,98094.80
2018-06-15T22:56:24.610Z,98097.98
2018-06-15T22:58:53.362Z,98097.09
2018-06-15T23:01:21.939Z,98101.98
2018-06-15T23:03:50.614Z,98098.78
2018-06-15T23:06:19.214Z,98096.61
2018-06-15T23:08:47.820Z,98098.59
2018-06-15T23:11:16.491Z,98102.18
2018-06-15T23:13:45.071Z,98094.35
2018-06-15T23:16:14.674Z,98097.88
2018-06-15T23:18:43.320Z,98098.83
2018-06-15T23:21:12.024Z,98100.41
2018-06-15T23:23:41.091Z,98098.56
2018-06-15T23:26:09.916Z,98096.04
2018-06-15T23:28:38.438Z,98094.03
2018-06-15T23:31:07.914Z,98093.94
2018-06-15T23:33:36.665Z,98102.20
2018-06-15T23:36:05.345Z,98099.40
2018-06-15T23:38:34.153Z,98095.62
2018-06-15T23:41:02.689Z,98101.66
2018-06-15T23:43:31.684Z,98086.70
2018-06-15T23:46:00.351Z,98091.65
2018-06-15T23:48:29.381Z,98089.00
2018-06-15T23:50:58.007Z,98084.31
2018-06-15T23:53:26.780Z,98081.92
2018-06-15T23:55:55.384Z,98080.37
2018-06-15T23:58:24.150Z,98083.02
